Yiewsley, United Kingdom

12:04 AM GMT on February 17, 2019 (GMT +0000)
West Drayton, The Green | | Change Station

Elev 89 ft 51.50 °N, 0.48 °W | Updated 3 seconds ago

Overcast
Overcast
49.8 °F
Feels Like 50 °F
N
0.4
Wind Variable Wind from ESE
Gusts 2.5 mph

Today
High -- | Low -- °F
--% Chance of Precip.
Yesterday
High -- | Low -- °F
Precip. -- in
Pressure 30.15 in
Visibility 3.7 miles
Clouds Mostly Cloudy 700 ft
Overcast 1000 ft
Windchill 50 °F
Dew Point 46 °F
Humidity 86%
Rainfall 0.00 in
Snow Depth Not available.
7:12 AM 5:20 PM
Waxing Gibbous, 90% visible
METAR EGLL 162350Z AUTO 15005KT 6000 BKN007 OVC010 09/08 Q1021 NOSIG
Pressure 30.15 in
Visibility 3.7 miles
Clouds Mostly Cloudy 700 ft
Overcast 1000 ft
Windchill 50 °F
Dew Point 46 °F
Humidity 86%
Rainfall 0.00 in
Snow Depth Not available.
7:12 AM 5:20 PM
Waxing Gibbous, 90% visible
METAR EGLL 162350Z AUTO 15005KT 6000 BKN007 OVC010 09/08 Q1021 NOSIG

Get Severe Weather Alerts

Thanks for signing up!

Be on the lookout for a verification email in your inbox.

You'll start receiving the daily forecast at 6 AM.

×

10-Day Weather Forecast

×

Almanac

Astronomy

Feb. 17, 2019 Rise Set
Actual Time
Civil Twilight
Nautical Twilight
Astronomical Twilight
Moon
Length of Visible Light
Length of Day
Tomorrow will be .
, % of the Moon is Illuminated

Today's Extremes

Country Highs Country Lows

Community

WunderPhotos

Category 6

Welcome to Category 6. This is the collective home for Weather Underground's featured writeups by Dr. Jeff Masters (right), Bob Henson (left), Chris Burt, and other regular contributors.

Nearby

Air Quality

  Air Quality AQ Index Pollutant
Not available.

Snow Depth

Station Depth Elevation

Earthquake Activity

City Distance Mag. Time & Date
Minimum magnitude displayed is 2.5.

Coastal Water Temperatures

Place Temperature

Stations

Nearby Weather Stations

Station Location Temp. Windchill Dew Point Humidity Wind Precip. Elev Updated Type